createdAt,value
2022-12-01T00:00:57.306Z,1022.00
2022-12-01T00:01:57.381Z,1022.00
2022-12-01T00:02:57.364Z,1022.00
2022-12-01T00:03:57.246Z,1021.93
2022-12-01T00:04:57.225Z,1021.97
2022-12-01T00:05:57.214Z,1021.93
2022-12-01T00:06:57.251Z,1021.99
2022-12-01T00:07:57.308Z,1021.95
2022-12-01T00:08:57.206Z,1021.97
2022-12-01T00:09:57.205Z,1021.95
2022-12-01T00:10:57.168Z,1021.96
2022-12-01T00:11:57.167Z,1021.94
2022-12-01T00:12:57.149Z,1021.92
2022-12-01T00:13:57.259Z,1021.93
2022-12-01T00:14:57.117Z,1021.90
2022-12-01T00:15:57.125Z,1021.96
2022-12-01T00:16:57.217Z,1021.88
2022-12-01T00:17:57.087Z,1021.85
2022-12-01T00:18:57.091Z,1021.92
2022-12-01T00:19:57.078Z,1021.86
2022-12-01T00:20:57.049Z,1021.87
2022-12-01T00:21:57.053Z,1021.88
2022-12-01T00:22:57.029Z,1021.89
2022-12-01T00:23:57.466Z,1021.86
2022-12-01T00:24:57.017Z,1021.84
2022-12-01T00:25:57.019Z,1021.84
2022-12-01T00:26:57.000Z,1021.84
2022-12-01T00:27:56.998Z,1021.86
2022-12-01T00:28:56.970Z,1021.85
2022-12-01T00:29:56.978Z,1021.85
2022-12-01T00:30:56.939Z,1021.82
2022-12-01T00:31:57.033Z,1021.83
2022-12-01T00:32:57.899Z,1021.81
2022-12-01T00:33:56.940Z,1021.82
2022-12-01T00:34:56.922Z,1021.90
2022-12-01T00:35:56.912Z,1021.89
2022-12-01T00:36:56.866Z,1021.91
2022-12-01T00:37:56.877Z,1021.87
2022-12-01T00:38:56.846Z,1021.90
2022-12-01T00:39:56.881Z,1021.93
2022-12-01T00:40:56.830Z,1021.91
2022-12-01T00:41:56.822Z,1021.94
2022-12-01T00:42:56.811Z,1021.95
2022-12-01T00:43:56.802Z,1021.92
2022-12-01T00:44:56.813Z,1021.91
2022-12-01T00:45:56.858Z,1021.96
2022-12-01T00:46:56.789Z,1021.91
2022-12-01T00:47:56.768Z,1021.91
2022-12-01T00:48:56.734Z,1021.97
2022-12-01T00:49:56.754Z,1021.87
2022-12-01T00:50:56.745Z,1021.91
2022-12-01T00:51:56.719Z,1021.86
2022-12-01T00:52:56.750Z,1021.85
2022-12-01T00:53:56.685Z,1021.90
2022-12-01T00:54:56.748Z,1021.83
2022-12-01T00:55:56.664Z,1021.83
2022-12-01T00:56:56.658Z,1021.86
2022-12-01T00:57:56.665Z,1021.84
2022-12-01T00:58:56.626Z,1021.88
2022-12-01T00:59:56.625Z,1021.88
2022-12-01T01:00:56.669Z,1021.87
2022-12-01T01:01:56.658Z,1021.90
2022-12-01T01:02:56.606Z,1021.89
2022-12-01T01:03:56.613Z,1021.93
2022-12-01T01:04:56.578Z,1021.95
2022-12-01T01:05:56.584Z,1021.93
2022-12-01T01:06:56.547Z,1021.96
2022-12-01T01:07:56.619Z,1021.95
2022-12-01T01:08:56.528Z,1021.93
2022-12-01T01:09:56.535Z,1021.97
2022-12-01T01:10:56.556Z,1021.92
2022-12-01T01:11:56.488Z,1021.95
2022-12-01T01:12:56.488Z,1021.97
2022-12-01T01:13:56.489Z,1021.93
2022-12-01T01:14:56.459Z,1021.99
2022-12-01T01:15:56.469Z,1021.99
2022-12-01T01:16:56.544Z,1022.03
2022-12-01T01:17:57.372Z,1022.01
2022-12-01T01:18:56.450Z,1021.98
2022-12-01T01:19:56.400Z,1022.05
2022-12-01T01:20:56.404Z,1022.05
2022-12-01T01:21:56.371Z,1022.03
2022-12-01T01:22:56.381Z,1022.04
2022-12-01T01:23:56.356Z,1022.08
2022-12-01T01:24:56.378Z,1022.03
2022-12-01T01:25:56.337Z,1022.06
2022-12-01T01:26:56.330Z,1022.09
2022-12-01T01:27:56.310Z,1022.06
2022-12-01T01:28:56.339Z,1022.07
2022-12-01T01:29:56.292Z,1022.11
2022-12-01T01:30:56.315Z,1022.13
2022-12-01T01:31:56.267Z,1022.14
2022-12-01T01:32:56.351Z,1022.16
2022-12-01T01:33:56.265Z,1022.07
2022-12-01T01:34:56.252Z,1022.18
2022-12-01T01:35:56.215Z,1022.15
2022-12-01T01:36:56.214Z,1022.18
2022-12-01T01:37:56.229Z,1022.17
2022-12-01T01:38:56.210Z,1022.16
2022-12-01T01:39:57.128Z,1022.12
2022-12-01T01:40:56.173Z,1022.16
2022-12-01T01:41:56.143Z,1022.17
2022-12-01T01:42:56.210Z,1022.13
2022-12-01T01:43:56.129Z,1022.19
2022-12-01T01:44:56.129Z,1022.18
2022-12-01T01:45:56.210Z,1022.19
2022-12-01T01:46:56.115Z,1022.23
2022-12-01T01:47:56.097Z,1022.25
2022-12-01T01:48:56.106Z,1022.22
2022-12-01T01:49:56.087Z,1022.18
2022-12-01T01:50:56.139Z,1022.30
2022-12-01T01:51:56.066Z,1022.24
2022-12-01T01:52:56.052Z,1022.24
2022-12-01T01:53:56.978Z,1022.24
2022-12-01T01:54:56.059Z,1022.23
2022-12-01T01:55:56.035Z,1022.26
2022-12-01T01:56:55.998Z,1022.25
2022-12-01T01:57:55.981Z,1022.18
2022-12-01T01:58:55.980Z,1022.23
2022-12-01T01:59:55.988Z,1022.21
2022-12-01T02:00:55.975Z,1022.21
2022-12-01T02:01:55.950Z,1022.27
2022-12-01T02:02:56.009Z,1022.21
2022-12-01T02:03:55.929Z,1022.20
2022-12-01T02:04:55.931Z,1022.16
2022-12-01T02:05:58.305Z,1022.25
2022-12-01T02:06:55.878Z,1022.22
2022-12-01T02:07:55.983Z,1022.19
2022-12-01T02:08:55.880Z,1022.18
2022-12-01T02:09:55.840Z,1022.19
2022-12-01T02:10:55.850Z,1022.21
2022-12-01T02:11:55.862Z,1022.22
2022-12-01T02:12:55.854Z,1022.16
2022-12-01T02:13:55.835Z,1022.15
2022-12-01T02:14:55.798Z,1022.25
2022-12-01T02:15:55.791Z,1022.26
2022-12-01T02:16:55.898Z,1022.21
2022-12-01T02:17:55.799Z,1022.20
2022-12-01T02:18:55.764Z,1022.18
2022-12-01T02:19:55.742Z,1022.17
2022-12-01T02:20:55.744Z,1022.15
2022-12-01T02:21:55.742Z,1022.14
2022-12-01T02:22:55.716Z,1022.12
2022-12-01T02:23:55.743Z,1022.12
2022-12-01T02:24:55.688Z,1022.16
2022-12-01T02:25:55.672Z,1022.12
2022-12-01T02:26:55.699Z,1022.12
2022-12-01T02:27:55.673Z,1022.17
2022-12-01T02:28:55.657Z,1022.16
2022-12-01T02:29:55.675Z,1022.18
2022-12-01T02:30:55.687Z,1022.23
2022-12-01T02:31:55.606Z,1022.17
2022-12-01T02:32:55.609Z,1022.14
2022-12-01T02:33:55.584Z,1022.10
2022-12-01T02:34:55.584Z,1022.11
2022-12-01T02:35:55.594Z,1022.13
2022-12-01T02:36:55.596Z,1022.09
2022-12-01T02:37:55.541Z,1022.10
2022-12-01T02:38:55.538Z,1022.13
2022-12-01T02:39:55.520Z,1022.13
2022-12-01T02:40:55.555Z,1022.16
2022-12-01T02:41:55.506Z,1022.19
2022-12-01T02:42:55.568Z,1022.15
2022-12-01T02:43:55.473Z,1022.12
2022-12-01T02:44:55.480Z,1022.10
2022-12-01T02:45:55.527Z,1022.12
2022-12-01T02:46:55.454Z,1022.10
2022-12-01T02:47:55.436Z,1022.08
2022-12-01T02:48:55.476Z,1022.10
2022-12-01T02:49:55.416Z,1022.13
2022-12-01T02:50:55.451Z,1022.10
2022-12-01T02:51:55.406Z,1022.06
2022-12-01T02:52:55.388Z,1022.08
2022-12-01T02:53:55.388Z,1022.13
2022-12-01T02:54:55.416Z,1022.08
2022-12-01T02:55:55.349Z,1022.09
2022-12-01T02:56:55.376Z,1022.10
2022-12-01T02:57:55.320Z,1022.09
2022-12-01T02:58:55.313Z,1022.13
2022-12-01T02:59:55.366Z,1022.12
2022-12-01T03:00:55.352Z,1022.10
2022-12-01T03:01:55.293Z,1022.10
2022-12-01T03:02:55.387Z,1022.05
2022-12-01T03:03:55.291Z,1022.11
2022-12-01T03:04:55.294Z,1022.12
2022-12-01T03:05:55.238Z,1022.12
2022-12-01T03:06:55.229Z,1022.09
2022-12-01T03:07:55.256Z,1022.15
2022-12-01T03:08:55.241Z,1022.09
2022-12-01T03:09:55.187Z,1022.05
2022-12-01T03:10:55.193Z,1022.12
2022-12-01T03:11:55.187Z,1022.11
2022-12-01T03:12:55.188Z,1022.15
2022-12-01T03:13:55.163Z,1022.12
2022-12-01T03:14:55.174Z,1022.09
2022-12-01T03:15:55.178Z,1022.10
2022-12-01T03:16:55.117Z,1022.13
2022-12-01T03:17:55.132Z,1022.12
2022-12-01T03:18:55.114Z,1022.09
2022-12-01T03:19:55.089Z,1022.14
2022-12-01T03:20:55.117Z,1022.09
2022-12-01T03:21:55.055Z,1022.12
2022-12-01T03:22:55.044Z,1022.06
2022-12-01T03:23:55.070Z,1022.08
2022-12-01T03:24:55.036Z,1022.07
2022-12-01T03:25:55.016Z,1022.04
2022-12-01T03:26:55.036Z,1022.05
2022-12-01T03:28:19.731Z,1022.14
2022-12-01T03:28:56.020Z,1022.12
2022-12-01T03:29:54.970Z,1022.10
2022-12-01T03:30:55.003Z,1022.13
2022-12-01T03:31:54.969Z,1022.17
2022-12-01T03:32:54.993Z,1022.15
2022-12-01T03:33:54.921Z,1022.15
2022-12-01T03:34:54.919Z,1022.16
2022-12-01T03:35:54.903Z,1022.14
2022-12-01T03:36:54.932Z,1022.16
2022-12-01T03:37:54.887Z,1022.14
2022-12-01T03:38:54.898Z,1022.15
2022-12-01T03:39:59.982Z,1022.22
2022-12-01T03:40:55.888Z,1022.17
2022-12-01T03:41:54.902Z,1022.17
2022-12-01T03:42:54.830Z,1022.15
2022-12-01T03:43:54.851Z,1022.23
2022-12-01T03:44:54.814Z,1022.18
2022-12-01T03:45:54.842Z,1022.24
2022-12-01T03:46:54.791Z,1022.20
2022-12-01T03:47:54.791Z,1022.25
2022-12-01T03:48:54.810Z,1022.25
2022-12-01T03:49:54.769Z,1022.25
2022-12-01T03:50:54.765Z,1022.28
2022-12-01T03:51:54.730Z,1022.32
2022-12-01T03:52:54.733Z,1022.37
2022-12-01T03:53:54.721Z,1022.24
2022-12-01T03:54:54.721Z,1022.34
2022-12-01T03:55:54.683Z,1022.34
2022-12-01T03:56:54.683Z,1022.35
2022-12-01T03:57:54.669Z,1022.33
2022-12-01T03:58:54.663Z,1022.34
2022-12-01T03:59:54.664Z,1022.28
2022-12-01T04:00:54.634Z,1022.37
2022-12-01T04:01:54.738Z,1022.28
2022-12-01T04:02:54.833Z,1022.31
2022-12-01T04:03:54.592Z,1022.25
2022-12-01T04:04:54.596Z,1022.34
2022-12-01T04:05:54.584Z,1022.30
2022-12-01T04:06:54.585Z,1022.34
2022-12-01T04:07:54.689Z,1022.39
2022-12-01T04:08:54.573Z,1022.36
2022-12-01T04:09:54.524Z,1022.36
2022-12-01T04:10:54.534Z,1022.35
2022-12-01T04:11:54.533Z,1022.33
2022-12-01T04:12:54.506Z,1022.36
2022-12-01T04:13:54.475Z,1022.30
2022-12-01T04:14:54.529Z,1022.40
2022-12-01T04:15:54.510Z,1022.27
2022-12-01T04:16:55.415Z,1022.33
2022-12-01T04:17:54.464Z,1022.28
2022-12-01T04:18:54.445Z,1022.29
2022-12-01T04:19:54.419Z,1022.28
2022-12-01T04:20:54.441Z,1022.28
2022-12-01T04:21:54.396Z,1022.29
2022-12-01T04:22:54.399Z,1022.29
2022-12-01T04:23:54.842Z,1022.33
2022-12-01T04:24:54.377Z,1022.39
2022-12-01T04:25:54.387Z,1022.37
2022-12-01T04:26:54.360Z,1022.34
2022-12-01T04:27:54.331Z,1022.26
2022-12-01T04:28:54.341Z,1022.34
2022-12-01T04:29:54.323Z,1022.26
2022-12-01T04:30:54.380Z,1022.23
2022-12-01T04:31:54.380Z,1022.27
2022-12-01T04:32:54.328Z,1022.32
2022-12-01T04:33:54.284Z,1022.35
2022-12-01T04:34:54.280Z,1022.24
2022-12-01T04:35:54.250Z,1022.32
2022-12-01T04:36:54.255Z,1022.28
2022-12-01T04:37:54.219Z,1022.31
2022-12-01T04:38:54.245Z,1022.24
2022-12-01T04:39:54.221Z,1022.25
2022-12-01T04:40:54.230Z,1022.27
2022-12-01T04:41:55.141Z,1022.34
2022-12-01T04:42:54.176Z,1022.30
2022-12-01T04:43:54.159Z,1022.30
2022-12-01T04:44:54.163Z,1022.26
2022-12-01T04:45:54.234Z,1022.26
2022-12-01T04:46:54.289Z,1022.29
2022-12-01T04:47:54.139Z,1022.22
2022-12-01T04:48:54.104Z,1022.26
2022-12-01T04:49:54.099Z,1022.26
2022-12-01T04:50:54.090Z,1022.24
2022-12-01T04:51:54.109Z,1022.23
2022-12-01T04:52:54.218Z,1022.24
2022-12-01T04:53:54.053Z,1022.18
2022-12-01T04:54:54.044Z,1022.20
2022-12-01T04:55:54.024Z,1022.26
2022-12-01T04:56:54.044Z,1022.23
2022-12-01T04:57:54.037Z,1022.18
2022-12-01T04:58:55.263Z,1022.17
2022-12-01T04:59:54.038Z,1022.18
2022-12-01T05:00:54.109Z,1022.19
2022-12-01T05:01:54.013Z,1022.24
2022-12-01T05:02:55.451Z,1022.19
2022-12-01T05:03:53.970Z,1022.26
2022-12-01T05:04:54.123Z,1022.26
2022-12-01T05:05:53.939Z,1022.23
2022-12-01T05:06:53.986Z,1022.16
2022-12-01T05:07:53.992Z,1022.19
2022-12-01T05:08:54.099Z,1022.17
2022-12-01T05:09:53.911Z,1022.10
2022-12-01T05:10:53.890Z,1022.12
2022-12-01T05:11:53.878Z,1022.12
2022-12-01T05:12:53.862Z,1022.13
2022-12-01T05:13:53.860Z,1022.11
2022-12-01T05:14:53.829Z,1022.19
2022-12-01T05:15:54.068Z,1022.10
2022-12-01T05:16:53.808Z,1022.15
2022-12-01T05:17:53.836Z,1022.12
2022-12-01T05:18:53.839Z,1022.18
2022-12-01T05:19:53.759Z,1022.11
2022-12-01T05:20:53.767Z,1022.17
2022-12-01T05:21:53.782Z,1022.21
2022-12-01T05:23:12.277Z,1022.19
2022-12-01T05:23:54.742Z,1022.15
2022-12-01T05:24:53.717Z,1022.27
2022-12-01T05:25:53.702Z,1022.19
2022-12-01T05:26:53.704Z,1022.21
2022-12-01T05:27:53.711Z,1022.23
2022-12-01T05:28:53.663Z,1022.16
2022-12-01T05:29:53.650Z,1022.17
2022-12-01T05:30:53.691Z,1022.20
2022-12-01T05:31:53.666Z,1022.24
2022-12-01T05:32:53.624Z,1022.20
2022-12-01T05:33:53.617Z,1022.24
2022-12-01T05:34:53.594Z,1022.20
2022-12-01T05:35:53.586Z,1022.18
2022-12-01T05:36:53.620Z,1022.21
2022-12-01T05:37:53.585Z,1022.20
2022-12-01T05:38:53.557Z,1022.21
2022-12-01T05:39:53.558Z,1022.19
2022-12-01T05:40:53.566Z,1022.24
2022-12-01T05:41:53.533Z,1022.22
2022-12-01T05:42:53.552Z,1022.21
2022-12-01T05:43:53.504Z,1022.20
2022-12-01T05:44:53.507Z,1022.27
2022-12-01T05:45:53.598Z,1022.31
2022-12-01T05:46:53.466Z,1022.26
2022-12-01T05:47:53.476Z,1022.25
2022-12-01T05:48:53.440Z,1022.28
2022-12-01T05:49:53.459Z,1022.34
2022-12-01T05:50:53.426Z,1022.31
2022-12-01T05:51:53.450Z,1022.27
2022-12-01T05:52:53.411Z,1022.30
2022-12-01T05:53:53.394Z,1022.37
2022-12-01T05:54:53.392Z,1022.36
2022-12-01T05:55:53.397Z,1022.31
2022-12-01T05:56:53.407Z,1022.39
2022-12-01T05:57:53.349Z,1022.42
2022-12-01T05:58:53.348Z,1022.42
2022-12-01T05:59:53.352Z,1022.43
2022-12-01T06:00:53.317Z,1022.42
2022-12-01T06:01:53.391Z,1022.45
2022-12-01T06:02:53.290Z,1022.40
2022-12-01T06:03:53.353Z,1022.46
2022-12-01T06:04:53.273Z,1022.43
2022-12-01T06:05:53.268Z,1022.50
2022-12-01T06:06:53.279Z,1022.43
2022-12-01T06:07:53.284Z,1022.45
2022-12-01T06:08:53.220Z,1022.46
2022-12-01T06:09:53.210Z,1022.43
2022-12-01T06:10:53.218Z,1022.45
2022-12-01T06:11:53.197Z,1022.41
2022-12-01T06:12:53.224Z,1022.45
2022-12-01T06:13:53.192Z,1022.48
2022-12-01T06:14:53.153Z,1022.47
2022-12-01T06:15:53.161Z,1022.46
2022-12-01T06:16:53.221Z,1022.44
2022-12-01T06:17:53.133Z,1022.44
2022-12-01T06:18:53.171Z,1022.51
2022-12-01T06:19:53.156Z,1022.53
2022-12-01T06:20:53.092Z,1022.45
2022-12-01T06:21:53.085Z,1022.54
2022-12-01T06:22:53.083Z,1022.53
2022-12-01T06:23:53.069Z,1022.54
2022-12-01T06:24:53.064Z,1022.49
2022-12-01T06:25:53.093Z,1022.53
2022-12-01T06:26:53.033Z,1022.54
2022-12-01T06:27:53.021Z,1022.55
2022-12-01T06:28:53.006Z,1022.50
2022-12-01T06:29:53.387Z,1022.49
2022-12-01T06:30:55.488Z,1022.53
2022-12-01T06:31:54.987Z,1022.52
2022-12-01T06:32:52.964Z,1022.54
2022-12-01T06:33:52.955Z,1022.52
2022-12-01T06:34:53.081Z,1022.54
2022-12-01T06:35:52.962Z,1022.55
2022-12-01T06:36:52.945Z,1022.53
2022-12-01T06:37:52.905Z,1022.53
2022-12-01T06:38:54.351Z,1022.55
2022-12-01T06:39:53.130Z,1022.57
2022-12-01T06:40:52.895Z,1022.54
2022-12-01T06:41:52.919Z,1022.63
2022-12-01T06:42:53.686Z,1022.56
2022-12-01T06:43:53.798Z,1022.56
2022-12-01T06:44:53.072Z,1022.65
2022-12-01T06:45:59.475Z,1022.58
2022-12-01T06:46:53.839Z,1022.56
2022-12-01T06:47:52.829Z,1022.55
2022-12-01T06:48:52.901Z,1022.57
2022-12-01T06:49:53.111Z,1022.58
2022-12-01T06:50:52.760Z,1022.61
2022-12-01T06:51:54.230Z,1022.63
2022-12-01T06:52:52.829Z,1022.67
2022-12-01T06:53:52.847Z,1022.60
2022-12-01T06:54:52.732Z,1022.63
2022-12-01T06:55:52.709Z,1022.68
2022-12-01T06:56:52.989Z,1022.68
2022-12-01T06:57:52.693Z,1022.66
2022-12-01T06:58:52.680Z,1022.68
2022-12-01T06:59:52.923Z,1022.70
2022-12-01T07:00:52.657Z,1022.68
2022-12-01T07:01:52.708Z,1022.70
2022-12-01T07:02:53.150Z,1022.74
2022-12-01T07:03:52.954Z,1022.69
2022-12-01T07:04:52.655Z,1022.72
2022-12-01T07:05:53.575Z,1022.71
2022-12-01T07:06:52.827Z,1022.71
2022-12-01T07:07:57.889Z,1022.71
2022-12-01T07:08:53.569Z,1022.69
2022-12-01T07:09:54.051Z,1022.79
2022-12-01T07:10:52.925Z,1022.78
2022-12-01T07:11:53.498Z,1022.76
2022-12-01T07:12:52.534Z,1022.82
2022-12-01T07:13:52.526Z,1022.73
2022-12-01T07:14:53.094Z,1022.74
2022-12-01T07:15:52.506Z,1022.78
2022-12-01T07:16:52.662Z,1022.84
2022-12-01T07:17:52.514Z,1022.78
2022-12-01T07:18:52.964Z,1022.84
2022-12-01T07:19:52.518Z,1022.74
2022-12-01T07:20:52.443Z,1022.76
2022-12-01T07:21:52.456Z,1022.76
2022-12-01T07:22:52.414Z,1022.79
2022-12-01T07:23:52.497Z,1022.76
2022-12-01T07:24:52.529Z,1022.80
2022-12-01T07:25:52.413Z,1022.80
2022-12-01T07:26:52.569Z,1022.85
2022-12-01T07:27:52.384Z,1022.84
2022-12-01T07:28:52.392Z,1022.77
2022-12-01T07:29:52.441Z,1022.78
2022-12-01T07:30:52.354Z,1022.78
2022-12-01T07:31:52.450Z,1022.82
2022-12-01T07:32:52.330Z,1022.77
2022-12-01T07:33:52.287Z,1022.81
2022-12-01T07:34:52.315Z,1022.80
2022-12-01T07:35:52.289Z,1022.85
2022-12-01T07:36:52.249Z,1022.83
2022-12-01T07:37:52.261Z,1022.90
2022-12-01T07:38:52.268Z,1022.89
2022-12-01T07:39:52.279Z,1022.80
2022-12-01T07:40:52.378Z,1022.84
2022-12-01T07:41:52.220Z,1022.83
2022-12-01T07:42:52.217Z,1022.87
2022-12-01T07:43:52.215Z,1022.89
2022-12-01T07:44:52.231Z,1022.88
2022-12-01T07:45:52.442Z,1022.89
2022-12-01T07:46:52.347Z,1022.88
2022-12-01T07:47:52.143Z,1022.89
2022-12-01T07:48:52.122Z,1022.86
2022-12-01T07:49:52.265Z,1022.86
2022-12-01T07:50:52.110Z,1022.84
2022-12-01T07:51:52.180Z,1022.83
2022-12-01T07:52:52.085Z,1022.85
2022-12-01T07:53:52.082Z,1022.85
2022-12-01T07:54:52.072Z,1022.86
2022-12-01T07:55:52.052Z,1022.81
2022-12-01T07:56:52.039Z,1022.83
2022-12-01T07:57:52.047Z,1022.83
2022-12-01T07:58:52.026Z,1022.83
2022-12-01T07:59:52.086Z,1022.87
2022-12-01T08:00:52.230Z,1022.90
2022-12-01T08:01:52.046Z,1022.92
2022-12-01T08:02:52.092Z,1022.86
2022-12-01T08:03:51.965Z,1022.86
2022-12-01T08:04:51.980Z,1022.91
2022-12-01T08:05:51.958Z,1022.98
2022-12-01T08:06:52.051Z,1022.97
2022-12-01T08:07:51.989Z,1022.93
2022-12-01T08:08:52.008Z,1022.92
2022-12-01T08:09:52.046Z,1022.92
2022-12-01T08:10:51.916Z,1022.97
2022-12-01T08:11:51.885Z,1022.98
2022-12-01T08:12:51.910Z,1022.95
2022-12-01T08:13:51.890Z,1023.00
2022-12-01T08:14:51.848Z,1022.96
2022-12-01T08:15:51.913Z,1023.00
2022-12-01T08:16:51.836Z,1022.98
2022-12-01T08:17:51.829Z,1022.95
2022-12-01T08:18:51.824Z,1023.06
2022-12-01T08:19:52.766Z,1023.03
2022-12-01T08:20:51.775Z,1023.05
2022-12-01T08:21:51.787Z,1023.03
2022-12-01T08:22:51.765Z,1022.99
2022-12-01T08:23:52.698Z,1023.00
2022-12-01T08:24:52.717Z,1023.02
2022-12-01T08:25:51.717Z,1023.01
2022-12-01T08:26:51.732Z,1023.05
2022-12-01T08:27:51.752Z,1023.07
2022-12-01T08:28:51.688Z,1023.04
2022-12-01T08:29:51.756Z,1023.07
2022-12-01T08:30:51.730Z,1023.07
2022-12-01T08:31:51.805Z,1023.02
2022-12-01T08:32:51.684Z,1023.02
2022-12-01T08:33:52.600Z,1023.06
2022-12-01T08:34:53.760Z,1023.07
2022-12-01T08:35:51.875Z,1023.07
2022-12-01T08:36:51.639Z,1023.04
2022-12-01T08:37:51.906Z,1023.09
2022-12-01T08:38:51.881Z,1023.08
2022-12-01T08:39:51.863Z,1023.09
2022-12-01T08:40:51.624Z,1023.09
2022-12-01T08:41:51.609Z,1023.07
2022-12-01T08:42:51.530Z,1023.06
2022-12-01T08:43:59.577Z,1023.04
2022-12-01T08:44:52.551Z,1023.08
2022-12-01T08:45:53.442Z,1023.14
2022-12-01T08:46:51.538Z,1023.07
2022-12-01T08:47:51.503Z,1023.12
2022-12-01T08:48:52.912Z,1023.04
2022-12-01T08:49:51.598Z,1023.13
2022-12-01T08:50:51.442Z,1023.06
2022-12-01T08:51:51.426Z,1023.09
2022-12-01T08:52:51.436Z,1023.10
2022-12-01T08:53:51.455Z,1023.12
2022-12-01T08:54:51.390Z,1023.12
2022-12-01T08:55:51.386Z,1023.15
2022-12-01T08:56:51.366Z,1023.10
2022-12-01T08:57:51.344Z,1023.19
2022-12-01T08:58:51.344Z,1023.14
2022-12-01T08:59:51.646Z,1023.13
2022-12-01T09:00:51.344Z,1023.17
2022-12-01T09:01:51.369Z,1023.14
2022-12-01T09:02:51.347Z,1023.13
2022-12-01T09:03:51.894Z,1023.15
2022-12-01T09:04:51.305Z,1023.16
2022-12-01T09:05:53.307Z,1023.18
2022-12-01T09:06:51.272Z,1023.16
2022-12-01T09:07:51.296Z,1023.14
2022-12-01T09:08:51.228Z,1023.19
2022-12-01T09:09:51.468Z,1023.21
2022-12-01T09:10:51.247Z,1023.22
2022-12-01T09:11:51.798Z,1023.26
2022-12-01T09:12:51.183Z,1023.15
2022-12-01T09:13:54.755Z,1023.23
2022-12-01T09:14:51.172Z,1023.21
2022-12-01T09:15:51.231Z,1023.21
2022-12-01T09:16:51.155Z,1023.17
2022-12-01T09:17:51.958Z,1023.24
2022-12-01T09:18:51.131Z,1023.24
2022-12-01T09:19:51.591Z,1023.32
2022-12-01T09:20:51.198Z,1023.29
2022-12-01T09:21:51.269Z,1023.28
2022-12-01T09:22:51.119Z,1023.26
2022-12-01T09:23:51.422Z,1023.19
2022-12-01T09:24:52.515Z,1023.24
2022-12-01T09:25:51.099Z,1023.21
2022-12-01T09:26:51.371Z,1023.23
2022-12-01T09:27:51.051Z,1023.22
2022-12-01T09:28:51.152Z,1023.28
2022-12-01T09:29:51.324Z,1023.26
2022-12-01T09:30:51.072Z,1023.33
2022-12-01T09:31:51.017Z,1023.26
2022-12-01T09:32:50.971Z,1023.25
2022-12-01T09:33:51.594Z,1023.26
2022-12-01T09:34:50.975Z,1023.28
2022-12-01T09:35:51.491Z,1023.26
2022-12-01T09:36:50.935Z,1023.38
2022-12-01T09:37:52.370Z,1023.35
2022-12-01T09:38:50.926Z,1023.33
2022-12-01T09:39:52.025Z,1023.35
2022-12-01T09:40:51.835Z,1023.39
2022-12-01T09:41:50.899Z,1023.42
2022-12-01T09:42:51.243Z,1023.30
2022-12-01T09:43:50.844Z,1023.36
2022-12-01T09:44:51.242Z,1023.37
2022-12-01T09:45:50.872Z,1023.33
2022-12-01T09:46:51.729Z,1023.32
2022-12-01T09:47:50.808Z,1023.29
2022-12-01T09:48:50.874Z,1023.28
2022-12-01T09:49:51.080Z,1023.28
2022-12-01T09:50:51.401Z,1023.30
2022-12-01T09:51:52.250Z,1023.30
2022-12-01T09:52:51.530Z,1023.28
2022-12-01T09:53:52.207Z,1023.28
2022-12-01T09:54:50.793Z,1023.27
2022-12-01T09:55:50.917Z,1023.22
2022-12-01T09:56:51.114Z,1023.25
2022-12-01T09:57:50.724Z,1023.26
2022-12-01T09:58:50.735Z,1023.24
2022-12-01T09:59:50.956Z,1023.24
2022-12-01T10:00:50.846Z,1023.24
2022-12-01T10:01:50.793Z,1023.23
2022-12-01T10:02:50.873Z,1023.24
2022-12-01T10:03:50.644Z,1023.20
2022-12-01T10:04:50.839Z,1023.22
2022-12-01T10:06:25.341Z,1023.21
2022-12-01T10:06:51.831Z,1023.19
2022-12-01T10:07:50.869Z,1023.21
2022-12-01T10:08:55.829Z,1023.22
2022-12-01T10:09:52.212Z,1023.21
2022-12-01T10:10:50.721Z,1023.15
2022-12-01T10:11:50.679Z,1023.13
2022-12-01T10:12:51.509Z,1023.13
2022-12-01T10:13:50.540Z,1023.14
2022-12-01T10:14:50.795Z,1023.12
2022-12-01T10:15:51.045Z,1023.14
2022-12-01T10:16:50.510Z,1023.17
2022-12-01T10:17:50.526Z,1023.08
2022-12-01T10:18:50.522Z,1023.11
2022-12-01T10:19:50.675Z,1023.10
2022-12-01T10:20:50.449Z,1023.07
2022-12-01T10:21:50.452Z,1023.07
2022-12-01T10:22:50.480Z,1023.06
2022-12-01T10:23:50.425Z,1023.08
2022-12-01T10:24:50.752Z,1023.03
2022-12-01T10:25:50.394Z,1023.03
2022-12-01T10:26:50.383Z,1023.07
2022-12-01T10:27:50.470Z,1023.05
2022-12-01T10:28:50.508Z,1023.00
2022-12-01T10:29:50.600Z,1023.10
2022-12-01T10:30:50.375Z,1023.00
2022-12-01T10:31:50.339Z,1023.04
2022-12-01T10:32:50.318Z,1023.06
2022-12-01T10:33:50.305Z,1023.02
2022-12-01T10:34:50.485Z,1023.08
2022-12-01T10:35:50.269Z,1023.06
2022-12-01T10:36:50.298Z,1023.02
2022-12-01T10:37:50.366Z,1023.01
2022-12-01T10:38:50.228Z,1023.00
2022-12-01T10:39:50.741Z,1023.01
2022-12-01T10:40:50.215Z,1023.09
2022-12-01T10:41:50.207Z,1023.05
2022-12-01T10:42:50.205Z,1023.02
2022-12-01T10:43:50.196Z,1022.97
2022-12-01T10:44:50.167Z,1022.98
2022-12-01T10:45:50.308Z,1023.00
2022-12-01T10:46:50.183Z,1023.00
2022-12-01T10:47:52.688Z,1023.01
2022-12-01T10:48:51.132Z,1022.97
2022-12-01T10:49:50.499Z,1023.00
2022-12-01T10:50:50.101Z,1022.99
2022-12-01T10:51:50.101Z,1023.00
2022-12-01T10:52:50.102Z,1023.04
2022-12-01T10:53:50.254Z,1023.02
2022-12-01T10:54:50.107Z,1023.03
2022-12-01T10:55:50.088Z,1023.03
2022-12-01T10:56:50.074Z,1022.99
2022-12-01T10:57:50.236Z,1022.99
2022-12-01T10:58:50.059Z,1023.03
2022-12-01T10:59:50.337Z,1022.97
2022-12-01T11:01:05.580Z,1022.97
2022-12-01T11:01:51.203Z,1023.01
2022-12-01T11:02:50.190Z,1022.93
2022-12-01T11:03:50.233Z,1022.95
2022-12-01T11:04:50.009Z,1023.00
2022-12-01T11:05:49.995Z,1023.00
2022-12-01T11:06:50.016Z,1022.98
2022-12-01T11:07:50.144Z,1022.97
2022-12-01T11:08:49.893Z,1023.00
2022-12-01T11:09:50.345Z,1022.98
2022-12-01T11:10:49.908Z,1022.97
2022-12-01T11:11:49.907Z,1022.96
2022-12-01T11:12:49.852Z,1022.98
2022-12-01T11:13:49.864Z,1022.94
2022-12-01T11:14:50.093Z,1022.95
2022-12-01T11:15:49.855Z,1022.93
2022-12-01T11:16:49.892Z,1022.93
2022-12-01T11:17:49.865Z,1022.96
2022-12-01T11:18:49.827Z,1022.97
2022-12-01T11:19:50.009Z,1022.93
2022-12-01T11:20:49.799Z,1022.90
2022-12-01T11:21:49.769Z,1022.91
2022-12-01T11:22:49.776Z,1022.94
2022-12-01T11:23:49.757Z,1022.94
2022-12-01T11:24:49.771Z,1022.92
2022-12-01T11:25:49.776Z,1022.95
2022-12-01T11:26:49.714Z,1022.88
2022-12-01T11:27:49.770Z,1022.84
2022-12-01T11:28:49.687Z,1022.89
2022-12-01T11:29:49.859Z,1022.93
2022-12-01T11:30:55.245Z,1022.85
2022-12-01T11:31:51.011Z,1022.90
2022-12-01T11:32:49.655Z,1022.90
2022-12-01T11:33:49.667Z,1022.86
2022-12-01T11:34:49.932Z,1022.89
2022-12-01T11:35:50.565Z,1022.91
2022-12-01T11:36:49.594Z,1022.90
2022-12-01T11:38:13.310Z,1022.91
2022-12-01T11:38:50.767Z,1022.84
2022-12-01T11:39:49.930Z,1022.88
2022-12-01T11:40:49.548Z,1022.92
2022-12-01T11:41:49.804Z,1022.89
2022-12-01T11:42:49.579Z,1022.90
2022-12-01T11:44:00.711Z,1022.88
2022-12-01T11:44:51.721Z,1022.87
2022-12-01T11:45:49.565Z,1022.88
2022-12-01T11:46:55.774Z,1022.85
2022-12-01T11:47:50.511Z,1022.85
2022-12-01T11:48:49.492Z,1022.90
2022-12-01T11:49:49.734Z,1022.86
2022-12-01T11:50:49.444Z,1022.84
2022-12-01T11:51:49.440Z,1022.85
2022-12-01T11:52:49.483Z,1022.84
2022-12-01T11:53:49.419Z,1022.82
2022-12-01T11:54:49.440Z,1022.83
2022-12-01T11:55:49.439Z,1022.88
2022-12-01T11:56:56.188Z,1022.86
2022-12-01T11:57:50.447Z,1022.85
2022-12-01T11:58:49.446Z,1022.83
2022-12-01T11:59:49.754Z,1022.81
2022-12-01T12:00:49.324Z,1022.79
2022-12-01T12:01:49.356Z,1022.78
2022-12-01T12:02:49.372Z,1022.81
2022-12-01T12:03:49.402Z,1022.84
2022-12-01T12:04:49.292Z,1022.83
2022-12-01T12:05:49.328Z,1022.81